Time;durP1;ratioP1;P1;durP2;ratioP2;P2;SDS_P1;SDS_P2;PMS_P1;PMS_P2;Temp;Humidity;BMP_temperature;BMP_pressure;BME280_temperature;BME280_humidity;BME280_pressure;Samples;Min_cycle;Max_cycle;Signal;HPM_P1;HPM_P2
2024/01/14 00:00:22;;;;;;;33.83;15.80;;;0.70;99.90;;;;;;5011774;28;20318;-54
2024/01/14 00:02:49;;;;;;;32.97;16.70;;;0.30;99.90;;;;;;5014618;28;20298;-54
2024/01/14 00:05:16;;;;;;;32.50;16.57;;;-0.10;99.90;;;;;;5014367;28;20218;-55
2024/01/14 00:07:42;;;;;;;28.53;16.30;;;-0.10;99.90;;;;;;5014678;28;20211;-57
2024/01/14 00:10:10;;;;;;;32.03;16.03;;;-0.30;99.90;;;;;;5014474;28;20222;-55
2024/01/14 00:12:36;;;;;;;35.00;16.53;;;-0.40;99.90;;;;;;5014298;28;20320;-57
2024/01/14 00:15:04;;;;;;;32.63;17.10;;;-0.40;99.90;;;;;;5011234;28;20325;-60
2024/01/14 00:17:32;;;;;;;33.67;17.13;;;-0.50;99.90;;;;;;5014267;28;20221;-55
2024/01/14 00:19:59;;;;;;;35.10;16.47;;;-0.30;99.90;;;;;;5014166;28;20234;-53
2024/01/14 00:22:25;;;;;;;37.87;17.67;;;0.00;99.90;;;;;;5014030;28;20211;-52
2024/01/14 00:24:52;;;;;;;36.03;17.63;;;0.10;99.90;;;;;;5013768;28;20314;-54
2024/01/14 00:27:19;;;;;;;35.13;16.93;;;0.30;99.90;;;;;;5013938;28;20203;-54
2024/01/14 00:29:46;;;;;;;33.63;17.53;;;0.30;99.90;;;;;;5013673;28;20239;-51
2024/01/14 00:32:12;;;;;;;37.23;18.30;;;0.20;99.90;;;;;;5014026;28;20664;-56
2024/01/14 00:34:41;;;;;;;34.77;16.67;;;0.20;99.90;;;;;;5013864;28;20216;-55
2024/01/14 00:37:08;;;;;;;31.20;16.13;;;-0.10;99.90;;;;;;5013734;28;20582;-53
2024/01/14 00:39:38;;;;;;;31.87;16.67;;;-0.30;99.90;;;;;;5013814;28;20230;-55
2024/01/14 00:42:06;;;;;;;28.17;15.83;;;-0.30;99.90;;;;;;5006338;28;20299;-53
2024/01/14 00:44:33;;;;;;;34.83;16.83;;;-0.20;99.90;;;;;;5014148;28;20214;-52
2024/01/14 00:46:59;;;;;;;31.47;16.60;;;-0.10;99.90;;;;;;5013870;28;20249;-54
2024/01/14 00:49:26;;;;;;;33.57;15.47;;;0.20;99.90;;;;;;5013721;28;20230;-55
2024/01/14 00:51:54;;;;;;;28.73;15.83;;;0.50;99.90;;;;;;5011707;28;20227;-53
2024/01/14 00:54:21;;;;;;;32.30;17.07;;;0.70;99.90;;;;;;5013186;28;20203;-53
2024/01/14 00:56:47;;;;;;;28.27;16.17;;;0.90;99.90;;;;;;5011855;28;20211;-53
2024/01/14 00:59:14;;;;;;;30.43;16.10;;;1.10;99.90;;;;;;5013586;28;20222;-51
2024/01/14 01:01:41;;;;;;;28.30;16.13;;;1.20;99.90;;;;;;5013223;28;20665;-53
2024/01/14 01:04:07;;;;;;;33.33;17.33;;;1.30;99.90;;;;;;5013432;28;20203;-53
2024/01/14 01:06:34;;;;;;;30.97;16.70;;;1.20;99.90;;;;;;5012960;28;20211;-52
2024/01/14 01:09:02;;;;;;;31.60;17.57;;;1.00;99.90;;;;;;5013051;28;20207;-51
2024/01/14 01:11:29;;;;;;;36.50;17.47;;;0.90;99.90;;;;;;5013753;28;20223;-51
2024/01/14 01:13:56;;;;;;;34.33;17.20;;;1.00;99.90;;;;;;5013415;28;20698;-52
2024/01/14 01:16:22;;;;;;;33.27;17.63;;;1.10;99.90;;;;;;5013262;28;20210;-51
2024/01/14 01:18:49;;;;;;;33.07;17.03;;;1.20;99.90;;;;;;5013010;28;20539;-51
2024/01/14 01:21:19;;;;;;;32.03;16.67;;;1.30;99.90;;;;;;5012994;28;20203;-52
2024/01/14 01:23:46;;;;;;;35.10;18.30;;;1.50;99.90;;;;;;5012694;28;20280;-53
2024/01/14 01:26:15;;;;;;;37.00;18.23;;;1.60;99.90;;;;;;5013090;28;20269;-52
2024/01/14 01:28:42;;;;;;;33.90;18.00;;;1.40;99.90;;;;;;5012755;28;20560;-51
2024/01/14 01:31:09;;;;;;;31.97;17.20;;;1.10;99.90;;;;;;5012559;28;20705;-51
2024/01/14 01:33:35;;;;;;;35.10;16.63;;;1.00;99.90;;;;;;5012815;28;20210;-52
2024/01/14 01:36:02;;;;;;;35.37;18.57;;;0.80;99.90;;;;;;5012567;28;20214;-52
2024/01/14 01:38:29;;;;;;;31.60;17.47;;;0.70;99.90;;;;;;5012668;28;20580;-52
2024/01/14 01:40:55;;;;;;;31.00;16.60;;;0.80;99.90;;;;;;5012439;28;20238;-52
2024/01/14 01:43:23;;;;;;;34.30;16.77;;;1.00;99.90;;;;;;5012792;28;20245;-52
2024/01/14 01:45:50;;;;;;;29.83;16.37;;;1.10;99.90;;;;;;5012237;28;20211;-51
2024/01/14 01:48:19;;;;;;;31.03;16.73;;;1.10;99.90;;;;;;5012839;28;20214;-52
2024/01/14 01:50:46;;;;;;;31.17;17.40;;;1.20;99.90;;;;;;5011859;28;20235;-50
2024/01/14 01:53:13;;;;;;;31.30;16.63;;;1.30;99.90;;;;;;5012596;28;20214;-52
2024/01/14 01:55:40;;;;;;;31.87;16.97;;;1.30;99.90;;;;;;5012076;28;20673;-51
2024/01/14 01:58:06;;;;;;;36.20;17.47;;;1.40;99.90;;;;;;5012408;28;20666;-53
2024/01/14 02:00:38;;;;;;;33.67;16.87;;;1.30;99.90;;;;;;5012293;28;20697;-55
2024/01/14 02:03:06;;;;;;;31.17;16.10;;;1.20;99.90;;;;;;5020220;28;20633;-57
2024/01/14 02:05:36;;;;;;;31.00;17.17;;;1.30;99.90;;;;;;5011758;28;20711;-53
2024/01/14 02:08:03;;;;;;;30.03;17.00;;;1.40;99.90;;;;;;5023788;28;20588;-53
2024/01/14 02:10:30;;;;;;;33.87;17.67;;;1.50;99.90;;;;;;5023966;28;20225;-53
2024/01/14 02:12:57;;;;;;;33.80;18.10;;;1.50;99.90;;;;;;5021393;28;20230;-52
2024/01/14 02:15:24;;;;;;;34.37;17.27;;;1.50;99.90;;;;;;5020367;28;20206;-51
2024/01/14 02:17:52;;;;;;;32.90;16.53;;;1.60;99.90;;;;;;5021924;28;20257;-52
2024/01/14 02:20:18;;;;;;;30.13;16.43;;;1.50;99.90;;;;;;5024241;28;20226;-52
2024/01/14 02:22:48;;;;;;;31.23;16.50;;;1.20;99.90;;;;;;5022652;28;20676;-52
2024/01/14 02:25:16;;;;;;;29.40;14.80;;;1.30;99.90;;;;;;5020249;28;20206;-52
2024/01/14 02:27:43;;;;;;;30.60;16.07;;;1.00;99.90;;;;;;5020387;28;20699;-52
2024/01/14 02:30:11;;;;;;;33.17;16.37;;;0.70;99.90;;;;;;5023498;28;20264;-52
2024/01/14 02:32:39;;;;;;;33.23;17.23;;;0.50;99.90;;;;;;5023346;28;20232;-52
2024/01/14 02:35:06;;;;;;;32.27;16.93;;;0.70;99.90;;;;;;5023632;28;20277;-53
2024/01/14 02:37:34;;;;;;;29.17;15.57;;;0.80;99.90;;;;;;5023630;28;20210;-53
2024/01/14 02:40:00;;;;;;;32.47;16.20;;;0.70;99.90;;;;;;5020629;28;20226;-56
2024/01/14 02:42:28;;;;;;;32.27;16.63;;;0.50;99.90;;;;;;5020117;28;20203;-52
2024/01/14 02:44:55;;;;;;;31.23;16.53;;;0.60;99.90;;;;;;5021538;28;20239;-52
2024/01/14 02:47:22;;;;;;;31.33;16.47;;;0.80;99.90;;;;;;5023195;28;20590;-53
2024/01/14 02:49:48;;;;;;;30.70;15.37;;;0.70;99.90;;;;;;5021625;28;20238;-52
2024/01/14 02:52:15;;;;;;;31.63;16.60;;;0.50;99.90;;;;;;5019417;28;20709;-53
2024/01/14 02:54:41;;;;;;;36.73;16.90;;;0.50;99.90;;;;;;5019676;28;20207;-53
2024/01/14 02:57:08;;;;;;;34.63;17.67;;;0.80;99.90;;;;;;5023127;28;20634;-53
2024/01/14 02:59:37;;;;;;;33.33;17.33;;;0.90;99.90;;;;;;5022776;28;20253;-51
2024/01/14 03:02:04;;;;;;;33.73;17.17;;;0.80;99.90;;;;;;5019853;28;20195;-52
2024/01/14 03:04:31;;;;;;;36.77;17.80;;;0.70;99.90;;;;;;5019618;28;20217;-54
2024/01/14 03:06:58;;;;;;;34.90;17.40;;;0.70;99.90;;;;;;5021561;28;20671;-52
2024/01/14 03:09:24;;;;;;;34.30;17.63;;;0.70;99.90;;;;;;5022996;28;20388;-52
2024/01/14 03:11:51;;;;;;;35.53;17.70;;;0.60;99.90;;;;;;5021283;28;20226;-53
2024/01/14 03:14:18;;;;;;;32.67;17.03;;;0.60;99.90;;;;;;5019407;28;20261;-53
2024/01/14 03:16:46;;;;;;;35.13;18.37;;;0.60;99.90;;;;;;5019750;28;20231;-52
2024/01/14 03:19:12;;;;;;;31.67;16.93;;;0.70;99.90;;;;;;5024813;28;20230;-53
2024/01/14 03:21:39;;;;;;;32.00;16.67;;;0.80;99.90;;;;;;5027386;28;20206;-52
2024/01/14 03:24:06;;;;;;;33.67;18.50;;;0.40;99.90;;;;;;5023355;28;20199;-52
2024/01/14 03:26:33;;;;;;;34.47;17.17;;;0.10;99.90;;;;;;5024268;28;20202;-53
2024/01/14 03:28:59;;;;;;;32.40;15.90;;;0.10;99.90;;;;;;5026614;28;20305;-52
2024/01/14 03:31:26;;;;;;;32.67;16.90;;;-0.10;99.90;;;;;;5026979;28;20202;-53
2024/01/14 03:33:54;;;;;;;34.70;17.83;;;-0.30;99.90;;;;;;5025413;28;20209;-53
2024/01/14 03:36:21;;;;;;;34.27;17.17;;;-0.30;99.90;;;;;;5023732;28;20207;-52
2024/01/14 03:38:48;;;;;;;34.37;16.37;;;-0.40;99.90;;;;;;5024088;28;20211;-52
2024/01/14 03:41:14;;;;;;;34.43;17.27;;;-0.40;99.90;;;;;;5026825;28;20203;-53
2024/01/14 03:43:41;;;;;;;36.43;18.10;;;-0.50;99.90;;;;;;5026496;28;20210;-53
2024/01/14 03:46:08;;;;;;;35.27;17.07;;;-0.40;99.90;;;;;;5026698;28;20202;-52
2024/01/14 03:48:35;;;;;;;30.17;15.63;;;-0.20;99.90;;;;;;5026620;28;20210;-53
2024/01/14 03:51:03;;;;;;;36.73;18.00;;;-0.20;99.90;;;;;;5022656;28;20230;-52
2024/01/14 03:53:30;;;;;;;35.77;17.63;;;0.00;99.90;;;;;;5021742;28;20312;-50
2024/01/14 03:55:56;;;;;;;40.47;18.70;;;0.00;99.90;;;;;;5023175;28;20211;-50
2024/01/14 03:58:23;;;;;;;39.53;19.33;;;0.00;99.90;;;;;;5025027;28;20214;-50
2024/01/14 04:00:50;;;;;;;40.63;17.93;;;-0.10;99.90;;;;;;5023949;28;20226;-51
2024/01/14 04:03:17;;;;;;;33.23;16.43;;;0.00;99.90;;;;;;5021609;28;20559;-50
2024/01/14 04:05:43;;;;;;;31.40;16.53;;;0.00;99.90;;;;;;5021228;28;20215;-50
2024/01/14 04:08:11;;;;;;;34.87;16.87;;;-0.10;99.90;;;;;;5024688;28;20234;-53
2024/01/14 04:10:38;;;;;;;34.10;17.03;;;-0.30;99.90;;;;;;5024769;28;20230;-50
2024/01/14 04:13:05;;;;;;;35.17;17.17;;;-0.50;99.90;;;;;;5021896;28;20273;-51
2024/01/14 04:15:31;;;;;;;30.23;16.13;;;-0.30;99.90;;;;;;5021084;28;20673;-49
2024/01/14 04:17:58;;;;;;;36.27;17.63;;;-0.10;99.90;;;;;;5023143;28;20568;-52
2024/01/14 04:20:25;;;;;;;34.87;17.10;;;0.00;99.90;;;;;;5024573;28;20229;-51
2024/01/14 04:22:51;;;;;;;34.63;17.20;;;0.30;99.90;;;;;;5023469;28;20206;-50
2024/01/14 04:25:19;;;;;;;32.70;16.13;;;0.30;99.90;;;;;;5020924;28;20681;-51
2024/01/14 04:27:46;;;;;;;35.37;18.23;;;0.40;99.90;;;;;;5021584;28;20207;-52
2024/01/14 04:30:13;;;;;;;35.77;18.37;;;0.50;99.90;;;;;;5024405;28;20229;-50
2024/01/14 04:32:40;;;;;;;36.53;18.40;;;0.70;99.90;;;;;;5024452;28;20225;-49
2024/01/14 04:35:07;;;;;;;39.57;17.77;;;0.70;99.90;;;;;;5020980;28;20203;-52
2024/01/14 04:37:34;;;;;;;42.20;18.43;;;0.80;99.90;;;;;;5021067;28;20203;-50
2024/01/14 04:40:01;;;;;;;38.23;18.53;;;0.90;99.90;;;;;;5022929;28;20743;-50
2024/01/14 04:42:29;;;;;;;36.00;17.70;;;1.00;99.90;;;;;;5024624;28;20207;-50
2024/01/14 04:44:55;;;;;;;39.43;18.57;;;1.00;99.90;;;;;;5022363;28;20206;-50
2024/01/14 04:47:22;;;;;;;34.83;18.13;;;0.90;99.90;;;;;;5020745;28;20207;-49
2024/01/14 04:49:49;;;;;;;35.73;17.90;;;0.80;99.90;;;;;;4984687;28;1066648;-51
2024/01/14 04:52:15;;;;;;;39.50;18.00;;;0.80;99.90;;;;;;5024913;28;20767;-50
2024/01/14 04:54:42;;;;;;;36.23;18.13;;;0.90;99.90;;;;;;5025231;28;20217;-50
2024/01/14 04:57:09;;;;;;;39.10;19.00;;;0.90;99.90;;;;;;5021959;28;20207;-53
2024/01/14 04:59:37;;;;;;;39.23;18.97;;;0.80;99.90;;;;;;5021700;28;20233;-50
2024/01/14 05:02:04;;;;;;;39.00;18.33;;;0.80;99.90;;;;;;5024476;28;20211;-50
2024/01/14 05:04:31;;;;;;;38.47;18.57;;;0.80;99.90;;;;;;5024881;28;20206;-51
2024/01/14 05:06:58;;;;;;;43.17;18.97;;;0.80;99.90;;;;;;5023126;28;20210;-50
2024/01/14 05:09:24;;;;;;;39.30;18.53;;;0.80;99.90;;;;;;5021645;28;20318;-51
2024/01/14 05:11:51;;;;;;;42.27;20.03;;;0.80;99.90;;;;;;5022236;28;20210;-51
2024/01/14 05:14:18;;;;;;;37.30;18.07;;;0.50;99.90;;;;;;5025081;28;20253;-51
2024/01/14 05:16:46;;;;;;;36.33;19.03;;;0.60;99.90;;;;;;5024765;28;20206;-50
2024/01/14 05:19:13;;;;;;;34.07;17.53;;;0.50;99.90;;;;;;5013547;28;20218;-50
2024/01/14 05:21:40;;;;;;;33.70;17.03;;;0.60;99.90;;;;;;5021224;28;20646;-51
2024/01/14 05:24:06;;;;;;;37.83;18.10;;;0.70;99.90;;;;;;5023864;28;20730;-50
2024/01/14 05:26:33;;;;;;;38.37;17.67;;;0.80;99.90;;;;;;5024671;28;20206;-49
2024/01/14 05:29:00;;;;;;;34.40;17.40;;;1.00;99.90;;;;;;5022447;28;20214;-50
2024/01/14 05:31:28;;;;;;;33.83;16.83;;;1.00;99.90;;;;;;5021272;28;20716;-50
2024/01/14 05:33:56;;;;;;;34.90;17.07;;;1.10;99.90;;;;;;5021934;28;20318;-49
2024/01/14 05:36:23;;;;;;;35.90;17.67;;;1.20;99.90;;;;;;5024381;28;20206;-49
2024/01/14 05:38:50;;;;;;;34.80;16.93;;;1.20;99.90;;;;;;5023578;28;20218;-52
2024/01/14 05:41:16;;;;;;;35.20;17.83;;;1.20;99.90;;;;;;5020610;28;20207;-50
2024/01/14 05:43:43;;;;;;;34.50;17.33;;;1.20;99.90;;;;;;5020725;28;20210;-50
2024/01/14 05:46:10;;;;;;;35.37;17.83;;;1.20;99.90;;;;;;5023650;28;20683;-52
2024/01/14 05:48:36;;;;;;;40.87;18.47;;;1.20;99.90;;;;;;5024263;28;20676;-50
2024/01/14 05:51:05;;;;;;;39.77;18.33;;;1.10;99.90;;;;;;5021430;28;20230;-49
2024/01/14 05:53:31;;;;;;;38.10;19.47;;;1.10;99.90;;;;;;5020413;28;20222;-49
2024/01/14 05:55:58;;;;;;;35.77;18.07;;;1.10;99.90;;;;;;5022102;28;20649;-51
2024/01/14 05:58:25;;;;;;;41.50;19.77;;;1.20;99.90;;;;;;5024182;28;20256;-50
2024/01/14 06:00:52;;;;;;;39.57;19.00;;;1.10;99.90;;;;;;5023138;28;20230;-50
2024/01/14 06:03:18;;;;;;;37.27;18.83;;;1.20;99.90;;;;;;5020376;28;20199;-51
2024/01/14 06:05:45;;;;;;;41.33;19.90;;;1.10;99.90;;;;;;5020287;28;20277;-51
2024/01/14 06:08:13;;;;;;;44.43;21.00;;;1.00;99.90;;;;;;5020839;28;20253;-51
2024/01/14 06:10:40;;;;;;;44.13;21.37;;;1.00;99.90;;;;;;5020601;28;20485;-50
2024/01/14 06:13:06;;;;;;;45.23;20.93;;;0.90;99.90;;;;;;5023238;28;20218;-51
2024/01/14 06:15:33;;;;;;;44.23;22.07;;;0.90;99.90;;;;;;5023543;28;20680;-50
2024/01/14 06:18:00;;;;;;;50.00;23.23;;;0.90;99.90;;;;;;5022349;28;20618;-50
2024/01/14 06:20:26;;;;;;;43.97;21.10;;;1.00;99.90;;;;;;5020071;28;20231;-52
2024/01/14 06:22:53;;;;;;;39.27;20.73;;;1.00;99.90;;;;;;5021005;28;20290;-49
2024/01/14 06:25:21;;;;;;;37.70;20.20;;;1.00;99.90;;;;;;5023535;28;20796;-50
2024/01/14 06:27:48;;;;;;;40.27;20.03;;;0.90;99.90;;;;;;5023296;28;20210;-50
2024/01/14 06:30:15;;;;;;;40.87;20.57;;;0.90;99.90;;;;;;5020348;28;20560;-50
2024/01/14 06:32:42;;;;;;;43.40;20.73;;;0.90;99.90;;;;;;5020154;28;20230;-50
2024/01/14 06:35:09;;;;;;;42.50;20.50;;;0.80;99.90;;;;;;5022582;28;20206;-51
2024/01/14 06:37:37;;;;;;;36.77;19.93;;;0.70;99.90;;;;;;5023365;28;20688;-51
2024/01/14 06:40:05;;;;;;;43.40;19.63;;;0.60;99.90;;;;;;5021342;28;20233;-50
2024/01/14 06:42:33;;;;;;;40.97;19.80;;;0.60;99.90;;;;;;5019733;28;20584;-51
2024/01/14 06:44:59;;;;;;;38.07;19.57;;;0.70;99.90;;;;;;5021212;28;20210;-50
2024/01/14 06:47:26;;;;;;;39.90;19.20;;;0.70;99.90;;;;;;5023076;28;20580;-50
2024/01/14 06:49:54;;;;;;;41.70;20.37;;;0.70;99.90;;;;;;5022301;28;20233;-53
2024/01/14 06:52:22;;;;;;;40.53;19.20;;;0.70;99.90;;;;;;5019746;28;20305;-50
2024/01/14 06:54:49;;;;;;;37.30;19.57;;;0.60;99.90;;;;;;5019498;28;20203;-50
2024/01/14 06:57:16;;;;;;;39.23;20.07;;;0.60;99.90;;;;;;5023089;28;20241;-50
2024/01/14 06:59:44;;;;;;;40.50;19.73;;;0.60;99.90;;;;;;5023063;28;20234;-52
2024/01/14 07:02:12;;;;;;;38.13;19.10;;;0.70;99.90;;;;;;5019843;28;20212;-52
2024/01/14 07:04:38;;;;;;;40.10;20.33;;;0.70;99.90;;;;;;5019507;28;20525;-52
2024/01/14 07:07:05;;;;;;;42.03;19.30;;;0.80;99.90;;;;;;5021559;28;20211;-50
2024/01/14 07:09:33;;;;;;;39.70;19.17;;;0.80;99.90;;;;;;5023018;28;20229;-52
2024/01/14 07:12:01;;;;;;;39.67;19.00;;;0.90;99.90;;;;;;5022337;28;20206;-50
2024/01/14 07:14:28;;;;;;;40.43;19.80;;;0.90;99.90;;;;;;5020443;28;20250;-51
2024/01/14 07:16:55;;;;;;;38.20;18.90;;;0.90;99.90;;;;;;5020074;28;20207;-50
2024/01/14 07:19:22;;;;;;;41.60;20.33;;;0.90;99.90;;;;;;5022593;28;20660;-50
2024/01/14 07:21:49;;;;;;;39.00;19.87;;;0.90;99.90;;;;;;5022607;28;20213;-51
2024/01/14 07:24:15;;;;;;;39.53;19.57;;;0.90;99.90;;;;;;5019042;28;20221;-52
2024/01/14 07:26:42;;;;;;;39.43;19.97;;;0.80;99.90;;;;;;5019310;28;20206;-50
2024/01/14 07:29:09;;;;;;;42.10;20.77;;;0.80;99.90;;;;;;5021724;28;20230;-50
2024/01/14 07:31:36;;;;;;;37.90;19.93;;;0.80;99.90;;;;;;5022556;28;20210;-50
2024/01/14 07:34:04;;;;;;;40.77;20.07;;;0.90;99.90;;;;;;5020440;28;20229;-50
2024/01/14 07:36:30;;;;;;;41.50;19.70;;;1.40;99.90;;;;;;5019046;28;20584;-51
2024/01/14 07:38:58;;;;;;;41.10;19.57;;;0.90;99.90;;;;;;5020301;28;20576;-50
2024/01/14 07:41:24;;;;;;;38.87;18.27;;;0.90;99.90;;;;;;5022587;28;20202;-50
2024/01/14 07:43:51;;;;;;;32.27;16.73;;;1.00;99.90;;;;;;5022161;28;20206;-50
2024/01/14 07:46:18;;;;;;;37.00;18.27;;;1.00;99.90;;;;;;5019262;28;20203;-52
2024/01/14 07:48:45;;;;;;;35.63;17.90;;;0.90;99.90;;;;;;5019194;28;20261;-49
2024/01/14 07:51:13;;;;;;;32.00;18.00;;;0.90;99.90;;;;;;5021885;28;20564;-50
2024/01/14 07:53:40;;;;;;;38.57;18.83;;;0.80;99.90;;;;;;5022413;28;20223;-49
2024/01/14 07:56:07;;;;;;;33.70;17.77;;;0.70;99.90;;;;;;5020178;28;20217;-50
2024/01/14 07:58:33;;;;;;;35.20;18.63;;;0.70;99.90;;;;;;5019025;28;20590;-50
2024/01/14 08:01:00;;;;;;;34.90;16.53;;;0.60;99.90;;;;;;5020341;28;20632;-51
2024/01/14 08:03:27;;;;;;;33.83;17.10;;;0.70;99.90;;;;;;5022478;28;20199;-50
2024/01/14 08:05:54;;;;;;;35.93;17.57;;;0.90;99.90;;;;;;5024263;28;20698;-50
2024/01/14 08:08:23;;;;;;;33.80;16.80;;;0.90;99.90;;;;;;5022962;28;20253;-50
2024/01/14 08:10:50;;;;;;;33.67;17.07;;;1.00;99.90;;;;;;5022686;28;20678;-50
2024/01/14 08:13:16;;;;;;;36.27;19.00;;;1.00;99.90;;;;;;5026571;28;20222;-50
2024/01/14 08:15:43;;;;;;;34.20;18.53;;;1.10;99.90;;;;;;5026158;28;20210;-50
2024/01/14 08:18:11;;;;;;;34.73;17.47;;;1.20;99.90;;;;;;5024112;28;20210;-51
2024/01/14 08:20:37;;;;;;;31.87;17.47;;;1.20;99.90;;;;;;5022990;28;20630;-51
2024/01/14 08:23:05;;;;;;;35.13;17.73;;;1.30;99.90;;;;;;5024828;28;20660;-50
2024/01/14 08:25:33;;;;;;;35.33;18.23;;;1.30;99.90;;;;;;5025597;28;20217;-50
2024/01/14 08:28:00;;;;;;;34.53;17.03;;;1.20;99.90;;;;;;5025110;28;20599;-49
2024/01/14 08:30:27;;;;;;;32.50;16.97;;;1.00;99.90;;;;;;5022598;28;20310;-50
2024/01/14 08:32:54;;;;;;;35.47;18.57;;;1.00;99.90;;;;;;5022277;28;20214;-51
2024/01/14 08:35:23;;;;;;;31.67;17.20;;;1.00;99.90;;;;;;5025252;28;20672;-49
2024/01/14 08:37:50;;;;;;;32.20;16.60;;;1.10;99.90;;;;;;5025725;28;20206;-49
2024/01/14 08:40:17;;;;;;;33.60;17.57;;;1.30;99.90;;;;;;5014066;28;20219;-49
2024/01/14 08:42:45;;;;;;;31.80;17.07;;;1.40;99.90;;;;;;5021959;28;20214;-50
2024/01/14 08:45:12;;;;;;;27.97;16.17;;;1.50;99.90;;;;;;5021530;28;20202;-50
2024/01/14 08:47:39;;;;;;;34.40;17.30;;;1.50;99.90;;;;;;5022311;28;20565;-50
2024/01/14 08:50:09;;;;;;;31.67;15.77;;;1.60;99.90;;;;;;5023633;28;20231;-50
2024/01/14 08:52:36;;;;;;;31.93;16.63;;;1.60;99.90;;;;;;5025234;28;20213;-51
2024/01/14 08:55:03;;;;;;;31.23;16.67;;;1.70;99.90;;;;;;5023462;28;20284;-50
2024/01/14 08:57:30;;;;;;;33.07;17.37;;;1.70;99.90;;;;;;5021944;28;20661;-51
2024/01/14 08:59:58;;;;;;;31.30;17.60;;;1.70;99.90;;;;;;5022242;28;20578;-49
2024/01/14 09:02:25;;;;;;;31.77;17.83;;;1.70;99.90;;;;;;5025137;28;20210;-50
2024/01/14 09:04:52;;;;;;;28.50;16.70;;;1.70;99.90;;;;;;5025065;28;20294;-52
2024/01/14 09:07:18;;;;;;;36.43;20.63;;;1.70;99.90;;;;;;5013844;28;20669;-49
2024/01/14 09:09:45;;;;;;;32.60;17.80;;;1.80;99.90;;;;;;5021582;28;20661;-50
2024/01/14 09:12:12;;;;;;;37.17;18.30;;;1.90;99.90;;;;;;5023939;28;20696;-50
2024/01/14 09:14:39;;;;;;;35.03;18.13;;;2.10;99.90;;;;;;5024628;28;20226;-50
2024/01/14 09:17:07;;;;;;;32.77;17.47;;;2.30;99.90;;;;;;5021755;28;20213;-51
2024/01/14 09:19:33;;;;;;;33.67;18.40;;;2.30;99.90;;;;;;5021464;28;20230;-51
2024/01/14 09:22:00;;;;;;;39.63;21.57;;;2.00;99.90;;;;;;5022412;28;20213;-52
2024/01/14 09:24:27;;;;;;;34.07;18.13;;;1.90;99.90;;;;;;5024647;28;20203;-50
2024/01/14 09:26:53;;;;;;;35.30;18.50;;;1.90;99.90;;;;;;5025029;28;20214;-50
2024/01/14 09:29:20;;;;;;;34.47;19.10;;;2.00;99.90;;;;;;5021609;28;20238;-53
2024/01/14 09:31:47;;;;;;;38.87;19.17;;;2.00;99.90;;;;;;5022421;28;20206;-50
2024/01/14 09:34:15;;;;;;;33.23;18.00;;;2.10;99.90;;;;;;5023431;28;20222;-51
2024/01/14 09:36:41;;;;;;;34.00;17.97;;;2.20;99.90;;;;;;5024489;28;20206;-50
2024/01/14 09:39:10;;;;;;;32.57;18.57;;;2.20;99.90;;;;;;5021965;28;20296;-53
2024/01/14 09:41:43;;;;;;;32.57;17.73;;;2.40;99.90;;;;;;5020922;28;20673;-50
2024/01/14 09:44:14;;;;;;;33.20;17.83;;;2.60;99.90;;;;;;5022971;28;20291;-50
2024/01/14 09:46:41;;;;;;;30.80;17.30;;;2.60;99.90;;;;;;5024549;28;20210;-50
2024/01/14 09:49:10;;;;;;;30.57;17.33;;;2.60;99.90;;;;;;5047908;22;20230;-55
2024/01/14 09:51:39;;;;;;;31.10;17.70;;;2.60;99.90;;;;;;5032011;28;20214;-55
2024/01/14 09:54:06;;;;;;;86.57;51.43;;;2.70;99.90;;;;;;5032483;28;20354;-56
2024/01/14 09:56:34;;;;;;;34.80;18.73;;;2.90;99.90;;;;;;5033020;28;20238;-57
2024/01/14 09:59:02;;;;;;;32.03;17.80;;;3.00;99.90;;;;;;5032602;28;20722;-55
2024/01/14 10:01:32;;;;;;;33.87;18.50;;;3.10;99.90;;;;;;5024419;28;20734;-57
2024/01/14 10:04:00;;;;;;;31.97;18.93;;;3.20;99.90;;;;;;5023665;28;20198;-55
2024/01/14 10:06:27;;;;;;;35.50;19.60;;;3.30;99.90;;;;;;5020902;28;20217;-54
2024/01/14 10:08:56;;;;;;;36.83;17.67;;;3.40;99.90;;;;;;5021014;28;20297;-58
2024/01/14 10:11:23;;;;;;;34.23;18.50;;;3.50;99.90;;;;;;5024236;28;20226;-55
2024/01/14 10:13:50;;;;;;;31.70;17.87;;;3.60;99.90;;;;;;5024506;28;20232;-53
2024/01/14 10:16:18;;;;;;;33.60;18.93;;;3.70;99.90;;;;;;5021384;28;20660;-57
2024/01/14 10:18:44;;;;;;;30.77;18.03;;;3.80;99.90;;;;;;5020868;28;20634;-52
2024/01/14 10:21:12;;;;;;;31.07;18.83;;;3.80;99.90;;;;;;5023014;28;20313;-55
2024/01/14 10:23:39;;;;;;;32.47;18.77;;;3.80;99.90;;;;;;5024602;28;20206;-54
2024/01/14 10:26:09;;;;;;;33.43;19.27;;;3.70;99.90;;;;;;5022988;28;20707;-53
2024/01/14 10:28:37;;;;;;;34.07;20.10;;;3.70;99.90;;;;;;5020839;28;20215;-54
2024/01/14 10:31:06;;;;;;;32.97;19.97;;;3.80;99.90;;;;;;5022163;28;20234;-54
2024/01/14 10:33:34;;;;;;;31.30;18.53;;;3.70;99.90;;;;;;5024351;28;20730;-54
2024/01/14 10:36:01;;;;;;;33.37;19.10;;;3.70;99.90;;;;;;5022660;28;20671;-55
2024/01/14 10:38:28;;;;;;;36.37;19.93;;;3.60;99.90;;;;;;5020438;28;20684;-58
2024/01/14 10:40:55;;;;;;;43.77;23.23;;;3.70;99.90;;;;;;5020272;28;20230;-54
2024/01/14 10:43:24;;;;;;;52.00;27.57;;;3.60;99.90;;;;;;5012758;28;20203;-53
2024/01/14 10:45:51;;;;;;;33.67;18.47;;;3.60;99.90;;;;;;5020078;28;20203;-54
2024/01/14 10:48:24;;;;;;;31.63;18.87;;;3.70;99.90;;;;;;5023246;28;20202;-57
2024/01/14 10:50:54;;;;;;;33.40;19.23;;;3.60;99.90;;;;;;5023757;28;20246;-54
2024/01/14 10:53:23;;;;;;;31.47;19.00;;;3.40;99.90;;;;;;5023932;28;20260;-54
2024/01/14 10:55:57;;;;;;;34.77;19.73;;;3.20;99.90;;;;;;5023194;28;20305;-55
2024/01/14 10:58:28;;;;;;;39.10;21.03;;;3.00;99.90;;;;;;5012797;28;20211;-55
2024/01/14 11:00:58;;;;;;;35.57;20.50;;;2.80;99.90;;;;;;5020175;28;20229;-54
2024/01/14 11:03:25;;;;;;;34.27;19.87;;;2.90;99.90;;;;;;5013099;28;20199;-54
2024/01/14 11:05:53;;;;;;;33.50;19.27;;;3.00;99.90;;;;;;5019988;28;20285;-54
2024/01/14 11:08:21;;;;;;;34.33;19.10;;;3.20;99.90;;;;;;5023187;28;20206;-53
2024/01/14 11:10:49;;;;;;;35.43;19.70;;;3.40;99.90;;;;;;5023673;28;20261;-53
2024/01/14 11:13:22;;;;;;;33.77;19.00;;;3.50;99.90;;;;;;5020933;28;20620;-53
2024/01/14 11:15:56;;;;;;;34.10;19.17;;;3.50;99.90;;;;;;5019623;28;20314;-55
2024/01/14 11:18:28;;;;;;;32.53;18.70;;;3.50;99.90;;;;;;5012440;28;20591;-55
2024/01/14 11:21:02;;;;;;;34.37;18.37;;;3.50;99.90;;;;;;5019964;28;20258;-55
2024/01/14 11:23:32;;;;;;;29.43;18.23;;;3.50;99.90;;;;;;5013076;28;20218;-55
2024/01/14 11:25:58;;;;;;;34.47;19.67;;;3.60;99.90;;;;;;5019974;28;20230;-57
2024/01/14 11:28:27;;;;;;;33.90;18.93;;;3.70;99.90;;;;;;5024045;28;20210;-54
2024/01/14 11:30:59;;;;;;;29.30;18.00;;;3.80;99.90;;;;;;5023427;28;20237;-54
2024/01/14 11:33:39;;;;;;;32.27;18.27;;;3.90;99.90;;;;;;5012782;28;20207;-55
2024/01/14 11:36:08;;;;;;;32.67;18.87;;;4.00;99.90;;;;;;5021068;28;20245;-53
2024/01/14 11:38:35;;;;;;;35.47;19.13;;;3.60;99.90;;;;;;5021050;28;20210;-60
2024/01/14 11:41:25;;;;;;;32.83;18.50;;;3.60;99.90;;;;;;5025536;28;20647;-60
2024/01/14 11:43:57;;;;;;;72.03;47.30;;;3.70;99.90;;;;;;5023656;28;20209;-60
2024/01/14 11:46:41;;;;;;;32.20;19.07;;;3.80;99.90;;;;;;5015867;28;20218;-60
2024/01/14 11:49:10;;;;;;;33.37;18.87;;;3.90;99.90;;;;;;5026229;28;20206;-62
2024/01/14 11:51:41;;;;;;;32.40;17.87;;;4.00;99.90;;;;;;5023666;28;20257;-62
2024/01/14 11:54:09;;;;;;;32.07;19.07;;;3.80;99.90;;;;;;5024948;28;20240;-67
2024/01/14 11:56:36;;;;;;;31.13;18.17;;;3.70;99.90;;;;;;5026731;28;20213;-64
2024/01/14 11:59:08;;;;;;;31.43;18.23;;;3.80;99.90;;;;;;5025934;28;20206;-62
2024/01/14 12:01:35;;;;;;;30.30;17.63;;;4.00;99.90;;;;;;5023887;28;20222;-65
2024/01/14 12:04:05;;;;;;;32.97;17.83;;;4.00;99.90;;;;;;5024385;28;20281;-64
2024/01/14 12:06:39;;;;;;;84.80;55.97;;;4.10;99.90;;;;;;5026922;28;20297;-62
2024/01/14 12:09:06;;;;;;;35.67;19.50;;;4.20;99.90;;;;;;5025884;28;20202;-62
2024/01/14 12:11:33;;;;;;;32.83;18.83;;;4.30;99.90;;;;;;5023997;28;20237;-61
2024/01/14 12:14:00;;;;;;;28.13;16.67;;;4.60;99.90;;;;;;5031305;28;20206;-61
2024/01/14 12:16:29;;;;;;;30.90;18.03;;;4.70;99.90;;;;;;5023513;28;20302;-61
2024/01/14 12:18:56;;;;;;;33.77;18.93;;;4.90;99.90;;;;;;5023677;28;20239;-55
2024/01/14 12:21:26;;;;;;;28.07;17.93;;;5.00;99.90;;;;;;5015167;28;20235;-54
2024/01/14 12:23:53;;;;;;;29.17;17.70;;;5.00;99.90;;;;;;5023049;28;20211;-54
2024/01/14 12:26:20;;;;;;;31.00;18.70;;;5.10;99.90;;;;;;5025795;28;20202;-54
2024/01/14 12:28:48;;;;;;;30.37;17.37;;;5.20;99.90;;;;;;5026355;28;20218;-53
2024/01/14 12:31:19;;;;;;;28.40;17.13;;;5.30;99.90;;;;;;5023728;28;20226;-54
2024/01/14 12:33:45;;;;;;;45.30;25.77;;;5.50;99.90;;;;;;5022717;28;20271;-54
2024/01/14 12:36:13;;;;;;;30.47;17.60;;;5.40;99.90;;;;;;5024536;28;20265;-56